Hartsel, CO

11:41 AM MDT on August 28, 2015 (GMT -0600)
Antero Junction | | Change Station
CLOSE
Current Station
Personal Weather Station
Location: Hartsel, CO
Elevation: 9420 ft
Nearby Weather Stations

Elev 9420 ft 38.89 °N, 105.90 °W | Updated 13 minutes ago

Partly Cloudy
Partly Cloudy
63.3 °F
Feels Like 63.3 °F
N
1.0
Wind Variable Wind from NW
Gusts 8.0 mph

Today
High -- | Low -- °F
--% Chance of Precip.
Yesterday
High -- | Low -- °F
Precip. -- in
6:28 AM 7:40 PM
Waxing Gibbous, 98% visible
Pressure 30.42 in
Visibility 10.0 miles
Clouds Scattered Clouds 8000 ft
Dew Point 37 °F
Humidity 38%
Rainfall 0.00 in
Snow Depth Not available.
UV 8 out of 12
Pollen 9.20 out of 12
Air Quality Not available.
Flu Activity Not available.
METAR KAEJ 281735Z AUTO 33013G21KT 10SM SCT080 23/M01 A3042 RMK AO2 T02301008
Pressure 30.42 in
Visibility 10.0 miles
Clouds Scattered Clouds 8000 ft
Dew Point 37 °F
Humidity 38%
Rainfall 0.00 in
Snow Depth Not available.
UV 8 out of 12
Pollen 9.20 out of 12
Air Quality Not available.
Flu Activity Not available.
METAR KAEJ 281735Z AUTO 33013G21KT 10SM SCT080 23/M01 A3042 RMK AO2 T02301008

10-Day Weather Forecast

×

Almanac

Astronomy

Aug. 28, 2015 Rise Set
Actual Time
Civil Twilight
Nautical Twilight
Astronomical Twilight
Moon
Length of Visible Light
Length of Day
Tomorrow will be .
, % of the Moon is Illuminated

Today's Extremes

State Highs State Lows

Community

WunderPhotos

Upload Photos

1,850,444 photos uploaded!

WunderBlogs® & News

Nearby

Air Quality

  Air Quality AQ Index Pollutant
Not available.

Snow Depth

Station Depth Elevation

Earthquake Activity

City Distance Mag. Time & Date
Minimum magnitude displayed is 2.5.

Coastal Water Temperatures

Place Temperature

Stations

Nearby Weather Stations

Station Location Temp. Windchill Dew Point Humidity Wind Precip. Elev Updated Type